Latest Coastal Weather Observations for Cape Bruny AWS

IDT60701

Issued at 10:22 am EDT Wednesday 22 February 2017 (issued every 10 minutes, with the page automatically refreshed every 10 minutes)

About coastal observations | Map of coastal stations | Coastal observations for TAS | Marine services | Other Formats
Station Details ID: 094198 Name: CAPE BRUNY (CAPE BRUNY) Lat: -43.49 Lon: 147.14 Height: 59.7 m
Data from the previous 72 hours. | See also: Recent months at Cape Bruny AWS
Date/Time
EDT
Temp
°C
Wind Pressure Rain since
9am
mm
Weather Cloud Vis
km
Sea
Height
m
Swell
Dir  Spd
kts
Gust
kts
hPa Trend Height
m
Period
s
Dir
22/10:00am 15.9 NNE 13 18 1014.5 - 0.0 - - - - - - -
22/09:30am 14.5 NNE 12 18 1014.5 - 0.0 - - - - - - -
22/09:00am 13.1 N 13 17 1014.9 - 0.2 - - - - - - -
22/08:30am 13.7 NNE 13 18 1014.8 - 0.2 - - - - - - -
22/08:00am 12.6 NNE 14 19 1015.1 - 0.2 - - - - - - -
22/07:30am 12.5 NNE 13 19 1015.0 - 0.2 - - - - - - -
22/07:00am 12.0 N 11 17 1015.0 - 0.2 - - - - - - -
22/06:30am 11.5 NNE 7 11 1015.0 - 0.2 - - - - - - -
22/06:00am 11.5 N 7 11 1015.2 - 0.2 - - - - - - -
22/05:30am 11.3 NNW 6 8 1015.6 - 0.2 - - - - - - -
22/05:00am 11.3 N 7 10 1015.6 - 0.2 - - - - - - -
22/04:30am 11.4 N 7 11 1016.1 - 0.2 - - - - - - -
22/04:00am 11.4 N 6 9 1016.6 - 0.2 - - - - - - -
22/03:30am 11.1 N 6 9 1017.1 - 0.2 - - - - - - -
22/03:00am 10.6 N 5 7 1017.4 - 0.2 - - - - - - -
22/02:30am 10.7 N 5 7 1017.6 - 0.2 - - - - - - -
22/02:00am 10.5 NNE 5 7 1017.9 - 0.2 - - - - - - -
22/01:30am 10.4 NNE 5 7 1018.4 - 0.2 - - - - - - -
22/01:00am 10.4 NE 4 5 1018.7 - 0.2 - - - - - - -
22/12:30am 10.7 E 2 4 1019.0 - 0.2 - - - - - - -
22/12:00am 10.7 E 3 4 1019.1 - 0.2 - - - - - - -
 
Date/Time
EDT
Temp
°C
Wind Pressure Rain since
9am
mm
Weather Cloud Vis
km
Sea
Height
m
Swell
Dir  Spd
kts
Gust
kts
hPa Trend Height
m
Period
s
Dir
21/11:30pm 11.1 SE 4 5 1019.2 - 0.2 - - - - - - -
21/11:00pm 11.9 SSW 5 7 1019.4 - 0.2 - - - - - - -
21/10:30pm 12.0 SW 7 9 1019.7 - 0.2 - - - - - - -
21/10:00pm 12.0 SW 9 13 1019.5 - 0.2 - - - - - - -
21/09:30pm 12.1 SW 11 16 1019.2 - 0.2 - - - - - - -
21/09:00pm 12.2 SW 13 19 1019.0 - 0.2 - - - - - - -
21/08:30pm 12.4 SW 14 21 1018.6 - 0.2 - - - - - - -
21/08:00pm 12.7 WSW 14 20 1018.4 - 0.2 - - - - - - -
21/07:30pm 13.5 SW 15 22 1018.2 - 0.2 - - - - - - -
21/07:00pm 14.2 WSW 15 21 1017.9 - 0.2 - - - - - - -
21/06:30pm 14.8 SW 16 23 1017.6 - 0.2 - - - - - - -
21/06:00pm 15.0 WSW 16 25 1017.6 - 0.2 - - - - - - -
21/05:30pm 15.7 SW 17 23 1017.6 - 0.2 - - - - - - -
21/05:00pm 16.1 WSW 16 24 1017.3 - 0.2 - - - - - - -
21/04:30pm 16.0 SW 17 24 1017.3 - 0.2 - - - - - - -
21/04:00pm 16.4 SW 15 24 1017.3 - 0.2 - - - - - - -
21/03:30pm 16.7 WSW 15 20 1017.3 - 0.2 - - - - - - -
21/03:00pm 16.4 WSW 18 27 1017.2 - 0.2 - - - - - - -
21/02:30pm 16.8 WSW 20 25 1017.4 - 0.2 - - - - - - -
21/02:00pm 17.3 WSW 17 22 1017.4 - 0.2 - - - - - - -
21/01:30pm 16.8 WSW 18 25 1017.4 - 0.2 - - - - - - -
21/01:00pm 16.9 WSW 20 26 1017.2 - 0.0 - - - - - - -
21/12:30pm 16.4 W 17 25 1017.3 - 0.0 - - - - - - -
21/12:00pm 15.9 W 17 21 1017.4 - 0.0 - - - - - - -
21/11:30am 14.6 WSW 19 25 1017.5 - 0.0 - - - - - - -
21/11:00am 13.6 WSW 22 27 1017.5 - 0.0 - - - - - - -
21/10:44am 14.3 WSW 18 28 1017.3 - 0.0 - - - - - - -
21/10:30am 14.5 W 17 22 1017.3 - 0.0 - - - - - - -
21/10:00am 14.5 W 18 23 1017.1 - 0.0 - - - - - - -
21/09:30am 13.6 W 18 22 1017.1 - 0.0 - - - - - - -
21/09:00am 12.8 W 20 28 1016.6 - 7.8 - - - - - - -
21/08:30am 12.6 W 18 22 1016.5 - 7.8 - - - - - - -
21/08:00am 12.5 W 19 23 1016.1 - 7.8 - - - - - - -
21/07:30am 12.5 W 20 24 1015.4 - 7.8 - - - - - - -
21/07:00am 12.6 W 21 27 1015.0 - 7.8 - - - - - - -
21/06:30am 12.7 WSW 21 26 1014.7 - 7.8 - - - - - - -
21/06:00am 12.9 WSW 23 29 1014.3 - 7.8 - - - - - - -
21/05:30am 12.9 WSW 19 25 1013.8 - 7.8 - - - - - - -
21/05:00am 12.8 WSW 20 26 1013.8 - 7.8 - - - - - - -
21/04:30am 13.0 WSW 24 30 1013.4 - 7.8 - - - - - - -
21/04:00am 12.7 WSW 19 27 1013.1 - 7.8 - - - - - - -
21/03:30am 12.3 WSW 18 24 1012.9 - 7.8 - - - - - - -
21/03:00am 12.5 W 17 25 1012.7 - 7.8 Recent precip. - - - - - -
21/02:30am 12.1 WSW 14 20 1012.7 - 7.6 - - - - - - -
21/02:00am 12.6 WSW 15 19 1012.6 - 7.6 - - - - - - -
21/01:30am 12.3 WSW 17 24 1012.7 - 7.6 - - - - - - -
21/01:00am 12.3 WSW 15 23 1012.7 - 7.6 - - - - - - -
21/12:30am 12.5 WSW 19 26 1012.8 - 7.6 - - - - - - -
21/12:10am 12.7 WSW 17 27 1012.6 - 7.6 - - - - - - -
21/12:00am 12.6 WSW 19 26 1012.7 - 7.6 - - - - - - -
 
Date/Time
EDT
Temp
°C
Wind Pressure Rain since
9am
mm
Weather Cloud Vis
km
Sea
Height
m
Swell
Dir  Spd
kts
Gust
kts
hPa Trend Height
m
Period
s
Dir
20/11:49pm 12.7 WSW 17 27 1012.6 - 7.6 - - - - - - -
20/11:30pm 12.8 WSW 19 25 1012.7 - 7.6 - - - - - - -
20/11:11pm 12.4 WSW 18 24 1012.6 - 7.6 - - - - - - -
20/11:00pm 12.0 WSW 19 28 1012.6 - 7.6 - - - - - - -
20/10:30pm 12.7 SW 18 25 1012.5 - 7.6 - - - - - - -
20/10:05pm 12.8 SW 19 29 1012.6 - 7.6 - - - - - - -
20/10:00pm 12.6 SW 19 27 1012.6 - 7.6 - - - - - - -
20/09:30pm 12.4 SW 17 25 1012.4 - 7.6 - - - - - - -
20/09:00pm 12.3 SW 17 22 1012.1 - 7.6 - - - - - - -
20/08:30pm 12.8 SW 16 27 1011.5 - 7.6 - - - - - - -
20/08:00pm 12.7 SW 12 19 1011.2 - 7.6 - - - - - - -
20/07:30pm 12.8 SSW 12 22 1010.8 - 7.6 - - - - - - -
20/07:00pm 13.3 SSW 12 22 1010.5 - 7.6 - - - - - - -
20/06:31pm 13.5 S 15 25 1010.0 - 7.6 - - - - - - -
20/06:30pm 13.5 S 15 23 1010.0 - 7.6 - - - - - - -
20/06:17pm 14.1 S 17 27 1009.9 - 7.6 - - - - - - -
20/06:00pm 13.7 S 16 23 1009.7 - 7.6 - - - - - - -
20/05:30pm 13.7 S 17 25 1009.5 - 7.6 - - - - - - -
20/05:00pm 14.1 SSE 15 21 1009.2 - 7.6 - - - - - - -
20/04:30pm 14.6 S 17 25 1008.8 - 7.6 - - - - - - -
20/04:00pm 13.8 SSE 17 22 1008.7 - 7.6 - - - - - - -
20/03:40pm 13.1 S 17 27 1008.6 - 7.6 - - - - - - -
20/03:30pm 13.2 SSE 16 24 1008.6 - 7.6 - - - - - - -
20/03:00pm 14.8 S 13 21 1008.6 - 7.2 - - - - - - -
20/02:30pm 14.6 S 11 20 1008.4 - 7.2 - - - - - - -
20/02:00pm 13.6 S 10 16 1008.3 - 7.2 - - - - - - -
20/01:30pm 13.6 WSW 8 13 1008.3 - 7.2 - - - - - - -
20/01:00pm 12.2 WSW 8 11 1008.7 - 6.4 - - - - - - -
20/12:30pm 12.3 S 13 19 1008.9 - 3.0 - - - - - - -
20/12:00pm 13.1 S 12 18 1008.7 - 0.4 Rain - - - - - -
20/11:30am 15.1 SW 13 19 1008.8 - 0.0 - - - - - - -
20/11:00am 15.4 WSW 9 15 1008.7 - 0.0 - - - - - - -
20/10:30am 15.2 WSW 9 13 1008.7 - 0.0 - - - - - - -
20/10:00am 13.7 W 5 7 1008.5 - 0.0 - - - - - - -
20/09:30am 13.3 WNW 6 7 1008.4 - 0.0 - - - - - - -
20/09:00am 11.9 WNW 6 7 1008.3 - 0.0 - - - - - - -
20/08:30am 11.2 WNW 6 7 1008.3 - 0.0 - - - - - - -
20/08:00am 10.3 WNW 7 9 1007.9 - 0.0 - - - - - - -
20/07:30am 10.5 WNW 7 9 1007.9 - 0.0 - - - - - - -
20/07:00am 10.2 NW 7 9 1007.7 - 0.0 - - - - - - -
20/06:30am 10.2 WNW 9 10 1007.5 - 0.0 - - - - - - -
20/06:00am 10.1 WNW 8 9 1007.2 - 0.0 - - - - - - -
20/05:30am 10.7 W 8 9 1006.8 - 0.0 - - - - - - -
20/05:00am 10.3 WNW 7 8 1006.8 - 0.0 - - - - - - -
20/04:30am 10.3 WNW 8 11 1006.7 - 0.0 - - - - - - -
20/04:00am 10.7 WNW 8 11 1006.6 - 0.0 - - - - - - -
20/03:30am 10.8 CALM 0 0 1006.6 - 0.0 - - - - - - -
20/03:00am 11.1 SW 4 6 1006.5 - 0.0 - - - - - - -
20/02:30am 11.4 SSW 3 5 1006.4 - 0.0 - - - - - - -
20/02:00am 11.8 SSE 6 9 1006.4 - 0.0 - - - - - - -
20/01:30am 12.2 SSE 7 11 1006.6 - 0.0 - - - - - - -
20/01:00am 12.1 S 5 9 1006.7 - 0.0 - - - - - - -
20/12:30am 11.8 SSE 8 12 1006.5 - 0.0 - - - - - - -
20/12:00am 12.1 S 7 11 1006.6 - 0.0 - - - - - - -
 
Date/Time
EDT
Temp
°C
Wind Pressure Rain since
9am
mm
Weather Cloud Vis
km
Sea
Height
m
Swell
Dir  Spd
kts
Gust
kts
hPa Trend Height
m
Period
s
Dir
19/11:30pm 12.6 SSE 9 13 1006.6 - 0.0 - - - - - - -
19/11:00pm 12.2 W 7 10 1006.7 - 0.0 - - - - - - -
19/10:30pm 12.7 W 9 10 1006.5 - 0.0 - - - - - - -
19/10:00pm 12.8 W 10 13 1006.5 - 0.0 - - - - - - -
19/09:30pm 12.9 W 9 11 1006.3 - 0.0 - - - - - - -
19/09:00pm 13.3 W 9 11 1006.1 - 0.0 - - - - - - -
19/08:30pm 13.4 SSW 5 8 1005.6 - 0.0 - - - - - - -
19/08:00pm 13.8 SSE 3 7 1005.1 - 0.0 - - - - - - -
19/07:30pm 14.6 SE 7 9 1004.8 - 0.0 - - - - - - -
19/07:00pm 15.4 SSE 6 9 1004.6 - 0.0 - - - - - - -
19/06:30pm 15.5 SE 7 9 1004.4 - 0.0 - - - - - - -
19/06:00pm 15.9 S 7 10 1004.2 - 0.0 - - - - - - -
19/05:30pm 16.2 SE 7 9 1004.1 - 0.0 - - - - - - -
19/05:00pm 16.2 S 7 9 1004.0 - 0.0 - - - - - - -
19/04:30pm 16.2 S 9 11 1004.1 - 0.0 - - - - - - -
19/04:00pm 16.5 SSW 8 11 1003.9 - 0.0 - - - - - - -
19/03:30pm 16.4 S 8 11 1003.9 - 0.0 - - - - - - -
19/03:00pm 15.4 SSW 7 11 1004.1 - 0.0 - - - - - - -
19/02:30pm 16.4 S 7 9 1004.2 - 0.0 - - - - - - -
19/02:00pm 15.6 S 7 9 1004.1 - 0.0 - - - - - - -
19/01:30pm 16.3 S 7 9 1004.3 - 0.0 - - - - - - -
19/01:00pm 15.1 S 6 8 1004.3 - 0.0 - - - - - - -
19/12:30pm 15.5 S 7 8 1004.3 - 0.0 - - - - - - -
19/12:00pm 13.8 S 5 8 1004.4 - 0.0 - - - - - - -
19/11:30am 13.4 S 5 7 1004.4 - 0.0 - - - - - - -
19/11:00am 13.6 SSW 4 6 1004.4 - 0.0 - - - - - - -
19/10:30am 14.4 W 4 6 1004.1 - 0.0 - - - - - - -

Other Formats:

Comma delimited format used in spreadsheet applications
http://www.bom.gov.au/fwo/IDT60701/IDT60701.95967.axf

JavaScript Object Notation format (JSON) in row-major order
http://www.bom.gov.au/fwo/IDT60701/IDT60701.95967.json